Time;durP1;ratioP1;P1;durP2;ratioP2;P2;SDS_P1;SDS_P2;PMS_P1;PMS_P2;Temp;Humidity;BMP_temperature;BMP_pressure;BME280_temperature;BME280_humidity;BME280_pressure;Samples;Min_cycle;Max_cycle;Signal;HPM_P1;HPM_P2
2021/10/23 00:00:21;;;;;;;21.45;5.47;;;9.10;99.90;;;;;;5039775;28;25087;-68
2021/10/23 00:02:47;;;;;;;19.65;5.70;;;9.20;99.90;;;;;;5052994;28;25146;-70
2021/10/23 00:05:13;;;;;;;20.80;6.05;;;9.30;99.90;;;;;;5048251;28;25182;-70
2021/10/23 00:07:38;;;;;;;15.50;5.50;;;9.30;99.90;;;;;;5043075;28;25081;-69
2021/10/23 00:10:05;;;;;;;20.67;6.20;;;9.30;99.90;;;;;;5043779;28;25071;-70
2021/10/23 00:12:30;;;;;;;18.95;5.75;;;9.10;99.90;;;;;;5046983;28;25059;-70
2021/10/23 00:14:56;;;;;;;20.77;4.78;;;8.90;99.90;;;;;;5046844;28;25050;-70
2021/10/23 00:17:23;;;;;;;14.57;5.18;;;8.90;99.90;;;;;;5022039;28;25062;-70
2021/10/23 00:19:49;;;;;;;17.17;6.05;;;8.90;99.90;;;;;;5047736;28;25138;-70
2021/10/23 00:22:14;;;;;;;16.27;5.45;;;8.90;99.90;;;;;;5044228;28;25130;-69
2021/10/23 00:24:40;;;;;;;17.48;6.20;;;8.90;99.90;;;;;;5042850;28;25096;-69
2021/10/23 00:27:05;;;;;;;21.23;5.78;;;8.80;99.90;;;;;;5044041;28;25072;-69
2021/10/23 00:29:31;;;;;;;12.43;5.15;;;8.90;99.90;;;;;;5033759;28;25157;-70
2021/10/23 00:31:57;;;;;;;17.05;5.75;;;8.90;99.90;;;;;;5044711;28;25081;-71
2021/10/23 00:34:23;;;;;;;15.20;5.88;;;8.90;99.90;;;;;;5042225;28;25052;-71
2021/10/23 00:36:49;;;;;;;19.73;6.30;;;8.90;99.90;;;;;;5042443;28;25137;-69
2021/10/23 00:39:14;;;;;;;18.88;6.00;;;8.90;99.90;;;;;;5042357;28;25086;-70
2021/10/23 00:41:41;;;;;;;24.50;5.95;;;8.90;99.90;;;;;;5044745;28;25107;-69
2021/10/23 00:44:26;;;;;;;19.50;6.72;;;8.80;99.90;;;;;;5043878;28;25066;-70
2021/10/23 00:46:51;;;;;;;18.83;5.80;;;8.70;99.90;;;;;;5043681;28;25072;-70
2021/10/23 00:49:17;;;;;;;16.02;5.97;;;8.70;99.90;;;;;;5036201;28;25076;-71
2021/10/23 00:51:42;;;;;;;23.05;6.07;;;8.70;99.90;;;;;;5041409;28;25094;-70
2021/10/23 00:54:09;;;;;;;21.50;6.25;;;8.60;99.90;;;;;;5044422;28;25060;-70
2021/10/23 00:56:36;;;;;;;19.73;6.47;;;8.40;99.90;;;;;;5043757;28;25130;-71
2021/10/23 00:59:01;;;;;;;14.48;6.25;;;8.30;99.90;;;;;;5040085;28;25108;-69
2021/10/23 01:01:27;;;;;;;18.00;6.43;;;8.30;99.90;;;;;;5038739;28;25130;-67
2021/10/23 01:03:52;;;;;;;17.38;6.18;;;8.30;99.90;;;;;;5039466;28;25054;-68
2021/10/23 01:06:19;;;;;;;19.83;6.88;;;8.30;99.90;;;;;;5039339;28;25059;-70
2021/10/23 01:08:45;;;;;;;27.25;6.57;;;8.30;99.90;;;;;;5036293;28;25067;-69
2021/10/23 01:11:11;;;;;;;17.40;6.10;;;8.30;99.90;;;;;;5043113;28;25082;-69
2021/10/23 01:13:37;;;;;;;18.67;6.45;;;8.20;99.90;;;;;;5043197;28;25065;-70
2021/10/23 01:16:02;;;;;;;21.95;7.20;;;8.20;99.90;;;;;;5017632;28;25052;-72
2021/10/23 01:18:29;;;;;;;19.00;6.07;;;8.20;99.90;;;;;;5040587;28;25170;-73
2021/10/23 01:20:55;;;;;;;18.88;5.80;;;8.10;99.90;;;;;;5039002;28;25121;-71
2021/10/23 01:23:20;;;;;;;16.63;5.68;;;8.10;99.90;;;;;;5027450;28;25134;-73
2021/10/23 01:25:46;;;;;;;16.00;5.72;;;8.10;99.90;;;;;;5021773;28;25065;-71
2021/10/23 01:28:12;;;;;;;17.73;6.50;;;8.10;99.90;;;;;;5044711;28;25066;-70
2021/10/23 01:30:37;;;;;;;19.52;5.70;;;8.10;99.90;;;;;;5043015;28;25147;-71
2021/10/23 01:33:03;;;;;;;16.00;5.85;;;8.10;99.90;;;;;;5043303;28;25067;-69
2021/10/23 01:35:28;;;;;;;16.42;5.60;;;8.10;99.90;;;;;;5040079;28;25066;-73
2021/10/23 01:37:55;;;;;;;16.52;6.15;;;8.00;99.90;;;;;;5033692;28;25165;-69
2021/10/23 01:40:34;;;;;;;19.00;5.90;;;8.10;99.90;;;;;;5032619;28;25074;-69
2021/10/23 01:43:00;;;;;;;15.27;5.60;;;8.00;99.90;;;;;;5042373;28;25122;-71
2021/10/23 01:45:26;;;;;;;20.42;6.07;;;7.90;99.90;;;;;;5029162;28;25080;-69
2021/10/23 01:47:52;;;;;;;16.67;5.85;;;7.90;99.90;;;;;;5042902;28;25058;-69
2021/10/23 01:50:20;;;;;;;14.88;5.63;;;7.80;99.90;;;;;;5038022;28;25071;-67
2021/10/23 01:52:46;;;;;;;18.92;5.70;;;7.90;99.90;;;;;;5025503;28;25105;-68
2021/10/23 01:55:13;;;;;;;13.13;5.55;;;7.90;99.90;;;;;;5035407;28;25074;-69
2021/10/23 01:57:39;;;;;;;10.77;5.53;;;8.00;99.90;;;;;;5038170;28;25097;-70
2021/10/23 02:00:06;;;;;;;15.05;6.15;;;7.90;99.90;;;;;;5044277;28;25065;-69
2021/10/23 02:02:32;;;;;;;16.90;5.47;;;7.70;99.90;;;;;;5028775;28;25097;-69
2021/10/23 02:04:57;;;;;;;15.02;5.45;;;7.70;99.90;;;;;;5040014;28;25149;-69
2021/10/23 02:07:23;;;;;;;17.83;5.82;;;7.70;99.90;;;;;;5038214;28;25091;-74
2021/10/23 02:09:49;;;;;;;18.08;6.78;;;7.60;99.90;;;;;;5040524;28;25129;-71
2021/10/23 02:12:14;;;;;;;16.20;6.85;;;7.60;99.90;;;;;;5040391;28;25101;-69
2021/10/23 02:14:40;;;;;;;22.65;6.75;;;7.60;99.90;;;;;;5027445;28;25051;-69
2021/10/23 02:17:05;;;;;;;14.48;5.95;;;7.60;99.90;;;;;;5032248;28;25127;-68
2021/10/23 02:19:31;;;;;;;17.80;6.35;;;7.60;99.90;;;;;;5044093;28;25060;-69
2021/10/23 02:21:57;;;;;;;15.45;5.18;;;7.60;99.90;;;;;;5043360;28;25121;-69
2021/10/23 02:24:23;;;;;;;17.38;6.32;;;7.70;99.90;;;;;;5048460;28;25083;-70
2021/10/23 02:26:48;;;;;;;12.80;4.80;;;7.60;99.90;;;;;;5041421;28;25144;-69
2021/10/23 02:29:14;;;;;;;20.95;7.15;;;7.50;99.90;;;;;;5034801;28;25060;-69
2021/10/23 02:31:39;;;;;;;18.85;5.53;;;7.60;99.90;;;;;;5052503;28;25066;-69
2021/10/23 02:34:05;;;;;;;8.68;5.32;;;7.60;99.90;;;;;;5046644;28;25068;-71
2021/10/23 02:36:31;;;;;;;14.60;5.95;;;7.60;99.90;;;;;;5035502;28;25109;-72
2021/10/23 02:38:57;;;;;;;15.20;6.32;;;7.50;99.90;;;;;;5040918;28;25062;-69
2021/10/23 02:41:24;;;;;;;14.38;5.38;;;7.40;99.90;;;;;;5043270;28;25084;-70
2021/10/23 02:43:51;;;;;;;20.42;7.07;;;7.40;99.90;;;;;;5043938;28;25086;-74
2021/10/23 02:46:17;;;;;;;12.13;5.07;;;7.50;99.90;;;;;;5045971;28;25053;-71
2021/10/23 02:48:43;;;;;;;11.68;4.30;;;7.60;99.90;;;;;;5043758;28;25133;-70
2021/10/23 02:51:08;;;;;;;11.40;5.05;;;7.70;99.90;;;;;;5034730;28;25076;-72
2021/10/23 02:53:34;;;;;;;16.50;5.45;;;7.70;99.90;;;;;;5042605;28;25117;-72
2021/10/23 02:55:59;;;;;;;15.88;5.78;;;7.60;99.90;;;;;;5050060;28;25102;-68
2021/10/23 02:58:25;;;;;;;16.40;5.13;;;7.60;99.90;;;;;;5041586;28;25108;-69
2021/10/23 03:00:51;;;;;;;10.77;5.22;;;7.50;99.90;;;;;;5039742;28;25082;-69
2021/10/23 03:03:16;;;;;;;23.00;6.78;;;7.50;99.90;;;;;;5053421;28;25055;-69
2021/10/23 03:05:42;;;;;;;17.90;5.43;;;7.40;99.90;;;;;;5045771;28;25130;-69
2021/10/23 03:08:08;;;;;;;16.02;4.88;;;7.40;99.90;;;;;;5040661;28;25154;-69
2021/10/23 03:10:33;;;;;;;13.13;5.40;;;7.40;99.90;;;;;;5035814;28;25158;-69
2021/10/23 03:13:01;;;;;;;12.95;5.22;;;7.40;99.90;;;;;;5043051;28;25111;-70
2021/10/23 03:15:26;;;;;;;14.77;5.55;;;7.40;99.90;;;;;;5033121;28;25107;-70
2021/10/23 03:17:52;;;;;;;15.40;5.30;;;7.30;99.90;;;;;;5038483;28;25160;-68
2021/10/23 03:20:17;;;;;;;16.42;5.05;;;7.20;99.90;;;;;;5040867;28;25070;-69
2021/10/23 03:22:43;;;;;;;10.95;5.25;;;7.20;99.90;;;;;;5046992;28;25093;-68
2021/10/23 03:25:08;;;;;;;14.50;5.13;;;7.20;99.90;;;;;;5047959;28;25161;-69
2021/10/23 03:27:38;;;;;;;13.90;5.85;;;7.30;99.90;;;;;;5045496;28;25062;-70
2021/10/23 03:30:05;;;;;;;10.75;5.03;;;7.10;99.90;;;;;;5044383;28;25105;-69
2021/10/23 03:32:31;;;;;;;17.27;6.25;;;7.00;99.90;;;;;;5044686;28;25126;-69
2021/10/23 03:34:59;;;;;;;10.18;5.22;;;7.10;99.90;;;;;;5044610;28;25083;-69
2021/10/23 03:37:30;;;;;;;15.40;6.07;;;7.20;99.90;;;;;;5040745;28;25156;-70
2021/10/23 03:39:56;;;;;;;17.77;5.78;;;7.20;99.90;;;;;;5041205;28;25140;-70
2021/10/23 03:42:22;;;;;;;22.80;7.07;;;7.10;99.90;;;;;;5045793;28;25168;-71
2021/10/23 03:44:48;;;;;;;16.25;5.97;;;7.10;99.90;;;;;;5043568;28;25090;-70
2021/10/23 03:47:16;;;;;;;12.82;5.68;;;7.00;99.90;;;;;;5043666;28;25085;-71
2021/10/23 03:49:42;;;;;;;14.48;5.82;;;7.10;99.90;;;;;;5039296;28;25075;-68
2021/10/23 03:52:08;;;;;;;13.43;5.70;;;7.10;99.90;;;;;;5037465;28;25164;-69
2021/10/23 03:54:33;;;;;;;19.27;7.32;;;7.00;99.90;;;;;;5044254;28;25088;-69
2021/10/23 03:56:59;;;;;;;19.83;6.53;;;6.90;99.90;;;;;;5046463;28;25069;-69
2021/10/23 03:59:24;;;;;;;14.18;6.18;;;6.90;99.90;;;;;;5047814;28;25073;-69
2021/10/23 04:01:50;;;;;;;19.15;6.97;;;7.00;99.90;;;;;;5043681;28;25082;-70
2021/10/23 04:04:16;;;;;;;11.50;5.55;;;7.00;99.90;;;;;;5034950;28;25060;-69
2021/10/23 04:06:41;;;;;;;14.18;6.10;;;7.00;99.90;;;;;;5044010;28;25103;-69
2021/10/23 04:09:07;;;;;;;12.65;6.50;;;7.10;99.90;;;;;;5037744;28;25059;-69
2021/10/23 04:11:32;;;;;;;16.75;6.93;;;7.00;99.90;;;;;;5039418;28;25058;-71
2021/10/23 04:13:58;;;;;;;14.70;6.00;;;7.00;99.90;;;;;;5036300;28;25167;-70
2021/10/23 04:16:24;;;;;;;12.93;5.68;;;7.00;99.90;;;;;;5043747;28;25139;-71
2021/10/23 04:18:49;;;;;;;23.52;7.22;;;7.00;99.90;;;;;;5037771;28;25112;-72
2021/10/23 04:21:15;;;;;;;15.05;6.45;;;7.00;99.90;;;;;;5024813;28;25099;-68
2021/10/23 04:23:41;;;;;;;19.83;6.63;;;7.00;99.90;;;;;;5042846;28;25075;-70
2021/10/23 04:26:07;;;;;;;18.40;5.95;;;7.00;99.90;;;;;;5039253;28;25073;-70
2021/10/23 04:28:32;;;;;;;17.25;6.30;;;6.90;99.90;;;;;;5041657;28;25102;-71
2021/10/23 04:30:58;;;;;;;19.90;6.65;;;7.00;99.90;;;;;;5035765;28;25142;-70
2021/10/23 04:33:24;;;;;;;15.75;6.90;;;7.00;99.90;;;;;;5041176;28;25131;-69
2021/10/23 04:35:50;;;;;;;11.30;5.55;;;6.90;99.90;;;;;;5043239;28;25131;-70
2021/10/23 04:38:16;;;;;;;14.60;6.20;;;6.90;99.90;;;;;;5039918;28;25083;-71
2021/10/23 04:40:42;;;;;;;11.15;6.22;;;7.00;99.90;;;;;;5039964;28;25080;-71
2021/10/23 04:43:08;;;;;;;12.80;5.82;;;7.00;99.90;;;;;;5039167;28;25084;-71
2021/10/23 04:45:33;;;;;;;13.60;6.35;;;6.90;99.90;;;;;;5035466;28;25058;-72
2021/10/23 04:48:00;;;;;;;14.27;5.93;;;6.90;99.90;;;;;;5025101;28;25108;-72
2021/10/23 04:50:26;;;;;;;9.20;5.80;;;6.80;99.90;;;;;;5026844;28;25126;-71
2021/10/23 04:52:51;;;;;;;8.68;6.10;;;6.80;99.90;;;;;;5040816;28;25106;-71
2021/10/23 04:55:17;;;;;;;12.32;6.03;;;6.80;99.90;;;;;;5035896;28;25137;-71
2021/10/23 04:57:43;;;;;;;15.25;6.60;;;6.80;99.90;;;;;;5037581;28;25099;-73
2021/10/23 05:00:09;;;;;;;11.45;5.60;;;6.80;99.90;;;;;;5042000;28;25085;-70
2021/10/23 05:02:34;;;;;;;13.07;5.82;;;6.90;99.90;;;;;;5036009;28;25063;-70
2021/10/23 05:05:00;;;;;;;15.93;5.80;;;6.90;99.90;;;;;;5025774;28;25119;-73
2021/10/23 05:07:25;;;;;;;16.38;6.25;;;6.80;99.90;;;;;;5026993;28;25122;-74
2021/10/23 05:09:51;;;;;;;15.93;6.35;;;6.80;99.90;;;;;;5040897;28;25095;-71
2021/10/23 05:12:16;;;;;;;12.05;6.50;;;6.70;99.90;;;;;;5034415;28;25058;-69
2021/10/23 05:14:42;;;;;;;11.68;5.70;;;6.70;99.90;;;;;;5056104;28;25177;-69
2021/10/23 05:17:08;;;;;;;14.40;5.75;;;6.70;99.90;;;;;;5033412;28;25085;-70
2021/10/23 05:19:34;;;;;;;16.20;6.18;;;6.70;99.90;;;;;;5043404;28;25136;-71
2021/10/23 05:21:59;;;;;;;15.05;6.65;;;6.60;99.90;;;;;;5035422;28;25059;-72
2021/10/23 05:24:27;;;;;;;13.82;5.75;;;6.60;99.90;;;;;;5037368;28;25088;-73
2021/10/23 05:26:52;;;;;;;15.25;6.03;;;6.60;99.90;;;;;;5047906;28;25095;-70
2021/10/23 05:29:18;;;;;;;13.45;7.22;;;6.60;99.90;;;;;;5055381;28;25058;-71
2021/10/23 05:31:44;;;;;;;15.70;6.00;;;6.60;99.90;;;;;;5039520;28;25071;-73
2021/10/23 05:34:09;;;;;;;14.55;6.03;;;6.60;99.90;;;;;;5039179;28;25060;-70
2021/10/23 05:36:35;;;;;;;15.63;6.65;;;6.60;99.90;;;;;;5044566;28;25055;-70
2021/10/23 05:39:00;;;;;;;16.40;7.15;;;6.60;99.90;;;;;;5035366;28;25064;-69
2021/10/23 05:41:26;;;;;;;12.07;6.10;;;6.60;99.90;;;;;;5037131;28;25083;-70
2021/10/23 05:43:52;;;;;;;13.52;5.53;;;6.60;99.90;;;;;;5045841;28;25073;-72
2021/10/23 05:46:18;;;;;;;9.85;6.03;;;6.60;99.90;;;;;;5045366;28;25123;-69
2021/10/23 05:48:43;;;;;;;20.15;6.93;;;6.60;99.90;;;;;;5045397;28;25067;-73
2021/10/23 05:51:09;;;;;;;10.80;6.43;;;6.60;99.90;;;;;;5042625;28;25118;-70
2021/10/23 05:53:34;;;;;;;12.55;7.45;;;6.60;99.90;;;;;;5044945;28;25162;-70
2021/10/23 05:56:00;;;;;;;24.67;12.68;;;6.60;99.90;;;;;;5058847;28;25088;-69
2021/10/23 05:58:30;;;;;;;36.35;24.48;;;6.60;99.90;;;;;;5051854;28;25073;-70
2021/10/23 06:01:00;;;;;;;32.67;21.65;;;6.60;99.90;;;;;;5044142;28;25057;-68
2021/10/23 06:03:26;;;;;;;22.77;11.43;;;6.60;99.90;;;;;;5049379;28;25075;-70
2021/10/23 06:05:52;;;;;;;17.67;9.65;;;6.60;99.90;;;;;;5040784;28;25284;-71
2021/10/23 06:08:17;;;;;;;12.75;8.68;;;6.70;99.90;;;;;;5047650;28;25103;-73
2021/10/23 06:10:43;;;;;;;15.32;9.10;;;6.70;99.90;;;;;;5039905;28;25062;-70
2021/10/23 06:13:11;;;;;;;13.50;7.30;;;6.80;99.90;;;;;;5046388;28;25057;-70
2021/10/23 06:15:36;;;;;;;20.17;7.68;;;6.80;99.90;;;;;;5041125;28;25061;-70
2021/10/23 06:18:03;;;;;;;16.40;7.80;;;6.80;99.90;;;;;;5039785;28;25069;-70
2021/10/23 06:20:29;;;;;;;20.13;8.65;;;6.90;99.90;;;;;;5041409;28;25090;-73
2021/10/23 06:22:55;;;;;;;20.38;8.57;;;6.90;99.90;;;;;;5044801;28;25067;-70
2021/10/23 06:25:21;;;;;;;17.15;9.13;;;7.00;99.90;;;;;;5039158;28;25080;-68
2021/10/23 06:27:47;;;;;;;18.58;8.85;;;7.20;99.90;;;;;;5045418;28;25064;-70
2021/10/23 06:30:13;;;;;;;17.10;9.27;;;7.20;99.90;;;;;;5046013;28;25064;-69
2021/10/23 06:32:49;;;;;;;26.35;10.38;;;7.30;99.90;;;;;;5045980;28;25101;-69
2021/10/23 06:35:15;;;;;;;18.35;11.13;;;7.40;99.90;;;;;;5043045;28;25086;-70
2021/10/23 06:37:41;;;;;;;23.35;11.95;;;7.50;99.90;;;;;;5029924;28;25073;-69
2021/10/23 06:40:07;;;;;;;25.08;13.35;;;7.60;99.90;;;;;;5025832;28;25066;-70
2021/10/23 06:42:33;;;;;;;22.13;12.60;;;7.80;99.90;;;;;;5039130;28;25152;-70
2021/10/23 06:44:59;;;;;;;29.48;13.07;;;7.90;99.90;;;;;;5026792;28;25063;-68
2021/10/23 06:47:24;;;;;;;44.17;15.20;;;8.00;99.90;;;;;;5043323;28;25053;-70
2021/10/23 06:49:51;;;;;;;51.05;15.32;;;8.10;99.90;;;;;;5048308;28;25142;-69
2021/10/23 06:52:17;;;;;;;35.78;13.88;;;8.10;99.90;;;;;;5030168;28;25129;-70
2021/10/23 06:54:42;;;;;;;26.80;12.40;;;8.30;99.90;;;;;;5027066;28;25243;-70
2021/10/23 06:57:08;;;;;;;41.50;14.32;;;8.30;99.90;;;;;;5047599;28;25072;-69
2021/10/23 06:59:34;;;;;;;21.88;11.88;;;8.40;99.90;;;;;;5046666;28;25061;-70
2021/10/23 07:01:59;;;;;;;31.63;12.88;;;8.40;99.90;;;;;;5047064;28;25063;-70
2021/10/23 07:04:25;;;;;;;32.75;14.15;;;8.40;99.90;;;;;;5046481;28;25114;-70
2021/10/23 07:06:50;;;;;;;31.23;15.23;;;8.50;99.90;;;;;;5045715;28;25101;-74
2021/10/23 07:09:17;;;;;;;29.98;15.73;;;8.50;99.90;;;;;;5043703;28;25105;-72
2021/10/23 07:11:43;;;;;;;27.95;15.40;;;8.50;99.90;;;;;;5045040;28;25096;-71
2021/10/23 07:14:08;;;;;;;30.40;16.27;;;8.60;99.90;;;;;;5046791;28;25090;-68
2021/10/23 07:16:34;;;;;;;38.83;18.75;;;8.70;99.90;;;;;;5044329;28;25071;-71
2021/10/23 07:18:59;;;;;;;27.95;16.17;;;8.80;99.90;;;;;;5045001;28;25086;-71
2021/10/23 07:21:25;;;;;;;32.85;18.90;;;8.90;99.90;;;;;;5046818;28;25058;-71
2021/10/23 07:23:53;;;;;;;31.20;18.45;;;9.00;99.90;;;;;;5046833;28;25145;-69
2021/10/23 07:26:22;;;;;;;33.17;18.33;;;9.10;99.90;;;;;;5032102;28;25067;-70
2021/10/23 07:28:47;;;;;;;32.50;18.00;;;9.20;99.90;;;;;;5029400;28;25160;-70
2021/10/23 07:31:13;;;;;;;33.33;21.05;;;9.30;99.90;;;;;;5044760;28;25102;-69
2021/10/23 07:33:38;;;;;;;36.08;21.05;;;9.30;99.90;;;;;;5047559;28;25104;-70
2021/10/23 07:36:04;;;;;;;35.28;21.75;;;9.40;99.90;;;;;;5041981;28;25054;-73
2021/10/23 07:38:29;;;;;;;31.15;20.05;;;9.40;99.90;;;;;;5044171;28;25082;-71
2021/10/23 07:40:57;;;;;;;42.38;22.85;;;9.50;99.90;;;;;;5042414;28;25087;-72
2021/10/23 07:43:23;;;;;;;38.70;21.00;;;9.60;99.90;;;;;;5046922;28;25075;-72
2021/10/23 07:45:49;;;;;;;32.55;21.63;;;9.60;99.90;;;;;;5046370;28;25127;-71
2021/10/23 07:48:17;;;;;;;32.50;21.23;;;9.70;99.90;;;;;;5042404;28;25142;-74
2021/10/23 07:50:44;;;;;;;38.60;22.42;;;9.70;99.90;;;;;;5044635;28;25061;-70
2021/10/23 07:53:09;;;;;;;36.92;21.88;;;9.80;99.90;;;;;;5044214;28;25075;-72
2021/10/23 07:55:35;;;;;;;39.17;22.35;;;9.80;99.90;;;;;;5041346;28;25073;-68
2021/10/23 07:58:01;;;;;;;37.20;23.08;;;9.80;99.90;;;;;;5047996;28;25140;-69
2021/10/23 08:00:27;;;;;;;36.35;20.60;;;9.90;99.90;;;;;;5047847;28;25072;-69
2021/10/23 08:02:59;;;;;;;33.65;21.42;;;9.90;99.90;;;;;;5039194;28;25105;-70
2021/10/23 08:05:30;;;;;;;39.22;24.08;;;9.90;99.90;;;;;;5047526;28;25069;-71
2021/10/23 08:07:56;;;;;;;42.22;26.83;;;10.00;99.90;;;;;;5042193;28;25097;-69
2021/10/23 08:10:23;;;;;;;35.95;24.73;;;10.00;99.90;;;;;;5048633;28;25079;-70
2021/10/23 08:12:49;;;;;;;39.95;23.48;;;10.00;99.90;;;;;;5067323;28;25099;-70
2021/10/23 08:15:16;;;;;;;41.83;24.00;;;10.10;99.90;;;;;;5038434;28;25052;-69
2021/10/23 08:17:42;;;;;;;36.53;21.80;;;10.10;99.90;;;;;;5038428;28;25142;-69
2021/10/23 08:20:08;;;;;;;35.65;21.88;;;10.20;99.90;;;;;;5048744;28;25133;-70
2021/10/23 08:22:35;;;;;;;32.50;21.92;;;10.20;99.90;;;;;;5045105;28;25105;-70
2021/10/23 08:25:05;;;;;;;34.13;22.70;;;10.20;99.90;;;;;;5045453;28;25121;-71
2021/10/23 08:27:38;;;;;;;40.50;24.33;;;10.20;99.90;;;;;;5044337;28;25078;-71
2021/10/23 08:30:10;;;;;;;35.08;23.23;;;10.20;99.90;;;;;;5045160;28;25087;-68
2021/10/23 08:32:37;;;;;;;37.00;24.10;;;10.30;99.90;;;;;;5042849;28;25065;-73
2021/10/23 08:35:04;;;;;;;37.10;22.80;;;10.30;99.90;;;;;;5049891;28;25135;-71
2021/10/23 08:37:30;;;;;;;37.80;24.50;;;10.40;99.90;;;;;;5048724;28;25069;-70
2021/10/23 08:39:55;;;;;;;38.95;23.83;;;10.30;99.90;;;;;;5045996;28;25055;-72
2021/10/23 08:42:21;;;;;;;34.33;21.98;;;10.30;99.90;;;;;;5029136;28;25070;-72
2021/10/23 08:44:46;;;;;;;36.35;24.00;;;10.40;99.90;;;;;;5047801;28;25089;-74
2021/10/23 08:47:16;;;;;;;35.72;24.20;;;10.30;99.90;;;;;;5026572;28;25062;-71
2021/10/23 08:49:44;;;;;;;37.70;24.45;;;10.20;99.90;;;;;;5046692;28;25071;-69
2021/10/23 08:52:10;;;;;;;35.97;24.20;;;10.30;99.90;;;;;;5041570;28;25050;-71
2021/10/23 08:54:36;;;;;;;41.33;24.67;;;10.30;99.90;;;;;;5040939;28;25068;-70
2021/10/23 08:57:02;;;;;;;31.48;20.95;;;10.20;99.90;;;;;;5043707;28;25166;-70
2021/10/23 08:59:29;;;;;;;39.95;25.67;;;10.20;99.90;;;;;;5034167;28;25099;-68
2021/10/23 09:02:00;;;;;;;25.23;19.08;;;10.30;99.90;;;;;;5042401;28;25115;-70
2021/10/23 09:04:26;;;;;;;28.42;19.70;;;10.40;99.90;;;;;;5043103;28;25134;-69
2021/10/23 09:06:52;;;;;;;35.65;22.00;;;10.50;99.90;;;;;;5040404;28;25098;-70
2021/10/23 09:09:19;;;;;;;33.42;22.85;;;10.50;99.90;;;;;;5043442;28;25108;-68
2021/10/23 09:11:47;;;;;;;28.33;19.98;;;10.50;99.90;;;;;;5039700;28;25066;-67
2021/10/23 09:14:34;;;;;;;31.15;20.75;;;10.50;99.90;;;;;;5043177;28;25161;-69
2021/10/23 09:17:12;;;;;;;33.85;20.95;;;10.50;99.90;;;;;;5041226;28;25131;-69
2021/10/23 09:19:47;;;;;;;33.03;21.65;;;10.50;99.90;;;;;;5037394;28;25088;-68
2021/10/23 09:22:30;;;;;;;33.40;21.60;;;10.50;99.90;;;;;;5039250;28;25147;-69
2021/10/23 09:25:17;;;;;;;34.08;22.02;;;10.50;99.90;;;;;;5039375;28;25055;-69
2021/10/23 09:27:59;;;;;;;28.38;20.02;;;10.50;99.90;;;;;;5041418;28;25114;-70
2021/10/23 09:30:37;;;;;;;28.27;19.75;;;10.60;99.90;;;;;;5042247;28;25081;-68
2021/10/23 09:33:14;;;;;;;29.05;18.27;;;10.60;99.90;;;;;;5042753;28;25103;-70
2021/10/23 09:35:45;;;;;;;25.95;19.20;;;10.70;99.90;;;;;;5041961;28;25051;-70
2021/10/23 09:38:14;;;;;;;24.40;20.05;;;10.70;99.90;;;;;;5041600;28;25064;-70
2021/10/23 09:40:41;;;;;;;27.85;19.95;;;10.70;99.90;;;;;;5036194;28;25069;-68
2021/10/23 09:43:28;;;;;;;30.55;19.33;;;10.80;99.90;;;;;;5040788;28;25177;-69
2021/10/23 09:46:06;;;;;;;26.55;18.65;;;10.90;99.90;;;;;;5039305;28;25110;-70
2021/10/23 09:48:45;;;;;;;30.52;17.88;;;11.10;99.90;;;;;;5047463;28;25096;-69
2021/10/23 09:51:23;;;;;;;23.05;16.67;;;11.20;99.90;;;;;;5041595;28;25090;-70
2021/10/23 09:53:55;;;;;;;22.30;15.95;;;11.30;99.90;;;;;;5048105;28;25127;-71
2021/10/23 09:56:23;;;;;;;23.42;15.52;;;11.30;99.90;;;;;;5048080;28;25114;-72
2021/10/23 09:58:58;;;;;;;25.88;15.27;;;11.20;99.90;;;;;;5046536;28;25078;-68
2021/10/23 10:01:29;;;;;;;26.00;15.80;;;11.10;99.90;;;;;;5051192;28;25065;-69
2021/10/23 10:04:05;;;;;;;20.08;14.80;;;11.10;99.90;;;;;;5049577;28;25134;-72
2021/10/23 10:06:42;;;;;;;23.98;15.13;;;11.20;99.90;;;;;;5041907;28;25077;-69
2021/10/23 10:09:09;;;;;;;25.52;17.17;;;11.30;99.90;;;;;;5046312;28;25051;-69
2021/10/23 10:11:39;;;;;;;23.70;16.67;;;11.20;99.90;;;;;;5047653;28;25055;-70
2021/10/23 10:14:09;;;;;;;26.90;18.55;;;11.30;99.90;;;;;;5045313;28;25066;-69
2021/10/23 10:16:36;;;;;;;23.35;16.35;;;11.30;99.90;;;;;;5047227;28;25053;-72
2021/10/23 10:19:02;;;;;;;22.08;16.45;;;11.20;99.90;;;;;;5046330;28;25068;-71
2021/10/23 10:21:34;;;;;;;26.27;17.85;;;11.20;99.90;;;;;;5045655;28;25129;-71
2021/10/23 10:23:59;;;;;;;25.27;17.25;;;11.30;99.90;;;;;;5049815;28;25119;-72
2021/10/23 10:26:34;;;;;;;24.23;16.60;;;11.40;99.90;;;;;;5046155;28;25068;-71
2021/10/23 10:29:06;;;;;;;25.00;15.18;;;11.40;99.90;;;;;;5043150;28;25060;-71
2021/10/23 10:31:57;;;;;;;;;;;11.50;99.90;;;;;;5030720;28;25155;-69
2021/10/23 10:43:06;;;;;;;17.73;12.32;;;11.50;99.90;;;;;;5049053;28;25145;-72
2021/10/23 10:45:40;;;;;;;17.75;12.40;;;11.50;99.90;;;;;;5045136;28;25064;-76
2021/10/23 10:48:14;;;;;;;19.80;12.68;;;11.50;99.90;;;;;;5046442;28;25131;-72
2021/10/23 10:50:52;;;;;;;17.80;11.75;;;11.60;99.90;;;;;;5046238;28;25116;-71
2021/10/23 10:53:28;;;;;;;17.55;12.38;;;11.60;99.90;;;;;;5060602;28;25062;-75
2021/10/23 10:55:59;;;;;;;18.65;11.77;;;11.70;99.90;;;;;;5055221;28;25099;-71
2021/10/23 10:58:48;;;;;;;17.75;11.80;;;11.70;99.90;;;;;;5056723;28;25146;-70
2021/10/23 11:01:13;;;;;;;18.95;11.65;;;11.80;99.90;;;;;;5044313;28;25095;-72
2021/10/23 11:03:43;;;;;;;22.10;11.85;;;11.80;99.90;;;;;;5047174;28;25117;-74
2021/10/23 11:06:34;;;;;;;17.65;10.48;;;11.90;99.90;;;;;;5042882;28;25115;-75
2021/10/23 11:12:02;;;;;;;17.92;9.90;;;11.90;99.90;;;;;;5032566;28;25062;-72
2021/10/23 11:14:28;;;;;;;16.23;9.10;;;12.00;99.90;;;;;;5015907;28;25090;-72
2021/10/23 11:16:57;;;;;;;15.77;9.65;;;12.10;99.90;;;;;;5030502;28;25161;-73
2021/10/23 11:19:24;;;;;;;12.38;9.13;;;12.20;99.90;;;;;;5046562;28;25103;-75
2021/10/23 11:22:12;;;;;;;15.07;8.38;;;12.30;99.90;;;;;;5047076;28;25069;-73
2021/10/23 11:25:03;;;;;;;10.27;7.95;;;12.30;99.90;;;;;;5049602;28;25060;-72
2021/10/23 11:27:47;;;;;;;14.13;8.05;;;12.30;99.90;;;;;;5050428;28;25069;-76
2021/10/23 11:30:33;;;;;;;10.80;6.93;;;12.40;99.90;;;;;;5049475;28;25124;-71
2021/10/23 11:33:02;;;;;;;9.55;7.47;;;12.60;99.90;;;;;;5050243;28;25067;-72
2021/10/23 11:35:36;;;;;;;12.48;8.52;;;12.80;99.90;;;;;;5050580;28;25133;-73
2021/10/23 11:38:07;;;;;;;9.60;6.75;;;12.90;99.90;;;;;;5047482;28;25073;-72
2021/10/23 11:40:35;;;;;;;13.02;7.63;;;12.90;99.90;;;;;;5043056;28;25523;-74
2021/10/23 11:43:01;;;;;;;13.57;7.45;;;12.80;99.90;;;;;;5030417;28;25044;-72
2021/10/23 11:45:32;;;;;;;11.93;7.43;;;12.70;99.90;;;;;;5048864;28;25061;-74
2021/10/23 11:48:07;;;;;;;14.52;8.40;;;12.70;99.90;;;;;;5050563;28;25070;-72
2021/10/23 11:50:39;;;;;;;14.52;8.25;;;12.90;99.90;;;;;;5046855;28;25175;-70
2021/10/23 11:53:23;;;;;;;14.32;7.68;;;13.00;99.90;;;;;;5046743;28;25061;-71
2021/10/23 11:56:00;;;;;;;12.45;7.40;;;13.00;99.90;;;;;;5037964;28;25075;-74
2021/10/23 11:58:31;;;;;;;10.65;6.40;;;13.00;99.90;;;;;;5044999;28;25074;-73
2021/10/23 12:01:03;;;;;;;12.38;7.82;;;13.10;99.90;;;;;;5045837;28;25065;-70
2021/10/23 12:03:39;;;;;;;12.35;7.15;;;13.10;99.90;;;;;;5028158;28;25136;-72
2021/10/23 12:06:22;;;;;;;11.25;7.00;;;13.20;99.90;;;;;;5042797;28;25113;-73
2021/10/23 12:09:18;;;;;;;13.88;7.30;;;13.30;99.90;;;;;;5035413;28;25074;-72
2021/10/23 12:11:44;;;;;;;12.45;7.82;;;13.40;99.90;;;;;;5045056;28;25049;-73
2021/10/23 12:14:12;;;;;;;18.90;9.57;;;13.50;99.90;;;;;;5046086;28;25051;-74
2021/10/23 12:16:39;;;;;;;10.35;8.27;;;13.40;99.90;;;;;;5047400;28;25057;-74
2021/10/23 12:19:15;;;;;;;12.02;8.80;;;13.40;99.90;;;;;;5046379;28;25084;-76
2021/10/23 12:22:08;;;;;;;16.90;9.70;;;13.40;99.90;;;;;;5036805;28;25110;-73
2021/10/23 12:24:50;;;;;;;14.38;9.77;;;13.30;99.90;;;;;;5041248;28;25110;-74
2021/10/23 12:27:23;;;;;;;16.55;11.30;;;13.40;99.90;;;;;;5048419;28;25095;-71
2021/10/23 12:30:06;;;;;;;13.32;10.48;;;13.30;99.90;;;;;;5045112;28;25170;-72
2021/10/23 12:32:41;;;;;;;16.27;11.43;;;13.40;99.90;;;;;;5041398;28;25075;-73
2021/10/23 12:35:18;;;;;;;15.25;12.02;;;13.30;99.90;;;;;;5044810;28;25078;-75
2021/10/23 12:37:54;;;;;;;15.45;11.82;;;13.30;99.90;;;;;;5048019;28;25057;-72
2021/10/23 12:40:34;;;;;;;15.40;11.80;;;13.40;99.90;;;;;;5046862;28;25066;-71
2021/10/23 12:43:06;;;;;;;14.20;11.18;;;13.50;99.90;;;;;;5044887;28;25066;-73
2021/10/23 12:45:43;;;;;;;16.95;11.57;;;13.50;99.90;;;;;;5045998;28;25116;-72
2021/10/23 12:48:11;;;;;;;20.77;11.80;;;13.50;99.90;;;;;;5044334;28;25069;-72
2021/10/23 12:50:39;;;;;;;18.00;10.93;;;13.50;99.90;;;;;;5043522;28;25072;-73
2021/10/23 12:53:05;;;;;;;17.00;11.63;;;13.50;99.90;;;;;;5042824;28;25109;-73
2021/10/23 12:55:31;;;;;;;15.85;11.27;;;13.50;99.90;;;;;;5043822;28;25091;-74
2021/10/23 12:57:57;;;;;;;20.45;12.18;;;13.40;99.90;;;;;;5041052;28;25081;-74